sensor_id;sensor_type;location;lat;lon;timestamp;temperature;humidity
6956;DHT22;50345;51.136;16.886;2023-02-15T00:01:17;2.60;99.90
6956;DHT22;50345;51.136;16.886;2023-02-15T00:03:42;2.60;99.90
6956;DHT22;50345;51.136;16.886;2023-02-15T00:06:08;2.60;99.90
6956;DHT22;50345;51.136;16.886;2023-02-15T00:08:33;2.60;99.90
6956;DHT22;50345;51.136;16.886;2023-02-15T00:11:10;2.60;99.90
6956;DHT22;50345;51.136;16.886;2023-02-15T00:13:36;2.50;99.90
6956;DHT22;50345;51.136;16.886;2023-02-15T00:16:07;2.50;99.90
6956;DHT22;50345;51.136;16.886;2023-02-15T00:18:33;2.50;99.90
6956;DHT22;50345;51.136;16.886;2023-02-15T00:21:03;2.50;99.90
6956;DHT22;50345;51.136;16.886;2023-02-15T00:23:29;2.40;99.90
6956;DHT22;50345;51.136;16.886;2023-02-15T00:26:09;2.40;99.90
6956;DHT22;50345;51.136;16.886;2023-02-15T00:28:34;2.40;99.90
6956;DHT22;50345;51.136;16.886;2023-02-15T00:31:08;2.40;99.90
6956;DHT22;50345;51.136;16.886;2023-02-15T00:33:34;2.30;99.90
6956;DHT22;50345;51.136;16.886;2023-02-15T00:36:00;2.30;99.90
6956;DHT22;50345;51.136;16.886;2023-02-15T00:38:29;2.30;99.90
6956;DHT22;50345;51.136;16.886;2023-02-15T00:40:57;2.30;99.90
6956;DHT22;50345;51.136;16.886;2023-02-15T00:43:23;2.30;99.90
6956;DHT22;50345;51.136;16.886;2023-02-15T00:45:49;2.30;99.90
6956;DHT22;50345;51.136;16.886;2023-02-15T00:48:14;2.30;99.90
6956;DHT22;50345;51.136;16.886;2023-02-15T00:50:40;2.30;99.90
6956;DHT22;50345;51.136;16.886;2023-02-15T00:53:05;2.20;99.90
6956;DHT22;50345;51.136;16.886;2023-02-15T00:55:31;2.20;99.90
6956;DHT22;50345;51.136;16.886;2023-02-15T00:57:57;2.20;99.90
6956;DHT22;50345;51.136;16.886;2023-02-15T01:00:22;2.20;99.90
6956;DHT22;50345;51.136;16.886;2023-02-15T01:02:48;2.20;99.90
6956;DHT22;50345;51.136;16.886;2023-02-15T01:05:14;2.10;99.90
6956;DHT22;50345;51.136;16.886;2023-02-15T01:07:39;2.10;99.90
6956;DHT22;50345;51.136;16.886;2023-02-15T01:10:06;2.10;99.90
6956;DHT22;50345;51.136;16.886;2023-02-15T01:12:33;2.10;99.90
6956;DHT22;50345;51.136;16.886;2023-02-15T01:14:58;2.00;99.90
6956;DHT22;50345;51.136;16.886;2023-02-15T01:17:24;2.00;99.90
6956;DHT22;50345;51.136;16.886;2023-02-15T01:19:50;2.00;99.90
6956;DHT22;50345;51.136;16.886;2023-02-15T01:22:17;2.00;99.90
6956;DHT22;50345;51.136;16.886;2023-02-15T01:24:43;2.00;99.90
6956;DHT22;50345;51.136;16.886;2023-02-15T01:27:09;1.90;99.90
6956;DHT22;50345;51.136;16.886;2023-02-15T01:29:34;1.90;99.90
6956;DHT22;50345;51.136;16.886;2023-02-15T01:32:00;1.90;99.90
6956;DHT22;50345;51.136;16.886;2023-02-15T01:34:25;1.90;99.90
6956;DHT22;50345;51.136;16.886;2023-02-15T01:36:51;1.80;99.90
6956;DHT22;50345;51.136;16.886;2023-02-15T01:39:17;1.80;99.90
6956;DHT22;50345;51.136;16.886;2023-02-15T01:41:42;1.80;99.90
6956;DHT22;50345;51.136;16.886;2023-02-15T01:47:10;1.80;99.90
6956;DHT22;50345;51.136;16.886;2023-02-15T01:49:38;1.80;99.90
6956;DHT22;50345;51.136;16.886;2023-02-15T01:52:07;1.70;99.90
6956;DHT22;50345;51.136;16.886;2023-02-15T01:54:35;1.70;99.90
6956;DHT22;50345;51.136;16.886;2023-02-15T01:57:05;1.70;99.90
6956;DHT22;50345;51.136;16.886;2023-02-15T01:59:35;1.70;99.90
6956;DHT22;50345;51.136;16.886;2023-02-15T02:02:04;1.70;99.90
6956;DHT22;50345;51.136;16.886;2023-02-15T02:04:42;1.60;99.90
6956;DHT22;50345;51.136;16.886;2023-02-15T02:07:13;1.70;99.90
6956;DHT22;50345;51.136;16.886;2023-02-15T02:09:39;1.60;99.90
6956;DHT22;50345;51.136;16.886;2023-02-15T02:12:05;1.60;99.90
6956;DHT22;50345;51.136;16.886;2023-02-15T02:14:31;1.60;99.90
6956;DHT22;50345;51.136;16.886;2023-02-15T02:17:13;1.60;99.90
6956;DHT22;50345;51.136;16.886;2023-02-15T02:43:12;1.30;99.90
6956;DHT22;50345;51.136;16.886;2023-02-15T02:45:52;1.40;99.90
6956;DHT22;50345;51.136;16.886;2023-02-15T02:48:24;1.30;99.90
6956;DHT22;50345;51.136;16.886;2023-02-15T02:50:51;1.30;99.90
6956;DHT22;50345;51.136;16.886;2023-02-15T02:53:16;1.30;99.90
6956;DHT22;50345;51.136;16.886;2023-02-15T02:55:55;1.30;99.90
6956;DHT22;50345;51.136;16.886;2023-02-15T02:59:01;1.30;99.90
6956;DHT22;50345;51.136;16.886;2023-02-15T03:01:32;1.20;99.90
6956;DHT22;50345;51.136;16.886;2023-02-15T03:04:12;1.20;99.90
6956;DHT22;50345;51.136;16.886;2023-02-15T03:07:00;1.20;99.90
6956;DHT22;50345;51.136;16.886;2023-02-15T03:12:17;1.10;99.90
6956;DHT22;50345;51.136;16.886;2023-02-15T03:14:49;1.10;99.90
6956;DHT22;50345;51.136;16.886;2023-02-15T03:17:18;1.10;99.90
6956;DHT22;50345;51.136;16.886;2023-02-15T03:19:46;1.00;99.90
6956;DHT22;50345;51.136;16.886;2023-02-15T03:22:19;1.00;99.90
6956;DHT22;50345;51.136;16.886;2023-02-15T03:24:51;1.00;99.90
6956;DHT22;50345;51.136;16.886;2023-02-15T03:27:22;0.90;99.90
6956;DHT22;50345;51.136;16.886;2023-02-15T03:29:53;0.80;99.90
6956;DHT22;50345;51.136;16.886;2023-02-15T03:32:20;0.80;99.90
6956;DHT22;50345;51.136;16.886;2023-02-15T03:34:47;0.80;99.90
6956;DHT22;50345;51.136;16.886;2023-02-15T03:37:34;0.70;99.90
6956;DHT22;50345;51.136;16.886;2023-02-15T03:40:19;0.70;99.90
6956;DHT22;50345;51.136;16.886;2023-02-15T03:43:18;0.70;99.90
6956;DHT22;50345;51.136;16.886;2023-02-15T03:45:51;0.60;99.90
6956;DHT22;50345;51.136;16.886;2023-02-15T03:48:28;0.60;99.90
6956;DHT22;50345;51.136;16.886;2023-02-15T03:50:58;0.60;99.90
6956;DHT22;50345;51.136;16.886;2023-02-15T03:53:45;0.50;99.90
6956;DHT22;50345;51.136;16.886;2023-02-15T03:56:12;0.50;99.90
6956;DHT22;50345;51.136;16.886;2023-02-15T03:58:37;0.50;99.90
6956;DHT22;50345;51.136;16.886;2023-02-15T04:01:35;0.40;99.90
6956;DHT22;50345;51.136;16.886;2023-02-15T04:06:57;0.40;99.90
6956;DHT22;50345;51.136;16.886;2023-02-15T04:09:23;0.30;99.90
6956;DHT22;50345;51.136;16.886;2023-02-15T04:12:07;0.30;99.90
6956;DHT22;50345;51.136;16.886;2023-02-15T04:14:33;0.30;99.90
6956;DHT22;50345;51.136;16.886;2023-02-15T04:17:17;0.20;99.90
6956;DHT22;50345;51.136;16.886;2023-02-15T04:19:43;0.20;99.90
6956;DHT22;50345;51.136;16.886;2023-02-15T04:22:27;0.20;99.90
6956;DHT22;50345;51.136;16.886;2023-02-15T04:25:11;0.20;99.90
6956;DHT22;50345;51.136;16.886;2023-02-15T04:27:45;0.20;99.90
6956;DHT22;50345;51.136;16.886;2023-02-15T04:30:12;0.20;99.90
6956;DHT22;50345;51.136;16.886;2023-02-15T04:32:38;0.20;99.90
6956;DHT22;50345;51.136;16.886;2023-02-15T04:35:05;0.20;99.90
6956;DHT22;50345;51.136;16.886;2023-02-15T04:37:31;0.30;99.90
6956;DHT22;50345;51.136;16.886;2023-02-15T04:39:57;0.20;99.90
6956;DHT22;50345;51.136;16.886;2023-02-15T04:42:26;0.30;99.90
6956;DHT22;50345;51.136;16.886;2023-02-15T04:44:53;0.30;99.90
6956;DHT22;50345;51.136;16.886;2023-02-15T04:47:18;0.30;99.90
6956;DHT22;50345;51.136;16.886;2023-02-15T04:49:44;0.30;99.90
6956;DHT22;50345;51.136;16.886;2023-02-15T04:52:09;0.40;99.90
6956;DHT22;50345;51.136;16.886;2023-02-15T04:54:35;0.40;99.90
6956;DHT22;50345;51.136;16.886;2023-02-15T04:57:01;0.40;99.90
6956;DHT22;50345;51.136;16.886;2023-02-15T04:59:27;0.40;99.90
6956;DHT22;50345;51.136;16.886;2023-02-15T05:01:52;0.40;99.90
6956;DHT22;50345;51.136;16.886;2023-02-15T05:04:18;0.40;99.90
6956;DHT22;50345;51.136;16.886;2023-02-15T05:06:44;0.40;99.90
6956;DHT22;50345;51.136;16.886;2023-02-15T05:09:11;0.40;99.90
6956;DHT22;50345;51.136;16.886;2023-02-15T05:11:36;0.40;99.90
6956;DHT22;50345;51.136;16.886;2023-02-15T05:14:02;0.40;99.90
6956;DHT22;50345;51.136;16.886;2023-02-15T05:16:27;0.40;99.90
6956;DHT22;50345;51.136;16.886;2023-02-15T05:18:53;0.40;99.90
6956;DHT22;50345;51.136;16.886;2023-02-15T05:21:19;0.40;99.90
6956;DHT22;50345;51.136;16.886;2023-02-15T05:23:44;0.40;99.90
6956;DHT22;50345;51.136;16.886;2023-02-15T05:26:12;0.50;99.90
6956;DHT22;50345;51.136;16.886;2023-02-15T05:28:56;0.50;99.90
6956;DHT22;50345;51.136;16.886;2023-02-15T05:31:22;0.50;99.90
6956;DHT22;50345;51.136;16.886;2023-02-15T05:33:47;0.50;99.90
6956;DHT22;50345;51.136;16.886;2023-02-15T05:36:13;0.50;99.90
6956;DHT22;50345;51.136;16.886;2023-02-15T05:38:39;0.50;99.90
6956;DHT22;50345;51.136;16.886;2023-02-15T05:41:06;0.50;99.90
6956;DHT22;50345;51.136;16.886;2023-02-15T05:43:33;0.60;99.90
6956;DHT22;50345;51.136;16.886;2023-02-15T05:45:58;0.60;99.90
6956;DHT22;50345;51.136;16.886;2023-02-15T05:48:25;0.60;99.90
6956;DHT22;50345;51.136;16.886;2023-02-15T05:50:59;0.60;99.90
6956;DHT22;50345;51.136;16.886;2023-02-15T05:53:25;0.60;99.90
6956;DHT22;50345;51.136;16.886;2023-02-15T05:55:51;0.60;99.90
6956;DHT22;50345;51.136;16.886;2023-02-15T05:58:17;0.50;99.90
6956;DHT22;50345;51.136;16.886;2023-02-15T06:00:42;0.50;99.90
6956;DHT22;50345;51.136;16.886;2023-02-15T06:03:08;0.50;99.90
6956;DHT22;50345;51.136;16.886;2023-02-15T06:05:34;0.50;99.90
6956;DHT22;50345;51.136;16.886;2023-02-15T06:07:59;0.50;99.90
6956;DHT22;50345;51.136;16.886;2023-02-15T06:10:25;0.50;99.90
6956;DHT22;50345;51.136;16.886;2023-02-15T06:12:50;0.50;99.90
6956;DHT22;50345;51.136;16.886;2023-02-15T06:15:16;0.50;99.90
6956;DHT22;50345;51.136;16.886;2023-02-15T06:17:42;0.40;99.90
6956;DHT22;50345;51.136;16.886;2023-02-15T06:20:08;0.40;99.90
6956;DHT22;50345;51.136;16.886;2023-02-15T06:22:34;0.40;99.90
6956;DHT22;50345;51.136;16.886;2023-02-15T06:24:59;0.40;99.90
6956;DHT22;50345;51.136;16.886;2023-02-15T06:27:25;0.40;99.90
6956;DHT22;50345;51.136;16.886;2023-02-15T06:29:50;0.50;99.90
6956;DHT22;50345;51.136;16.886;2023-02-15T06:32:16;0.50;99.90
6956;DHT22;50345;51.136;16.886;2023-02-15T06:34:41;0.50;99.90
6956;DHT22;50345;51.136;16.886;2023-02-15T06:37:07;0.50;99.90
6956;DHT22;50345;51.136;16.886;2023-02-15T06:39:33;0.50;99.90
6956;DHT22;50345;51.136;16.886;2023-02-15T06:41:59;0.60;99.90
6956;DHT22;50345;51.136;16.886;2023-02-15T06:44:25;0.60;99.90
6956;DHT22;50345;51.136;16.886;2023-02-15T06:46:51;0.70;99.90
6956;DHT22;50345;51.136;16.886;2023-02-15T06:49:16;0.70;99.90
6956;DHT22;50345;51.136;16.886;2023-02-15T06:51:42;0.80;99.90
6956;DHT22;50345;51.136;16.886;2023-02-15T06:54:07;0.80;99.90
6956;DHT22;50345;51.136;16.886;2023-02-15T06:56:33;0.90;99.90
6956;DHT22;50345;51.136;16.886;2023-02-15T06:58:58;1.00;99.90
6956;DHT22;50345;51.136;16.886;2023-02-15T07:01:24;1.00;99.90
6956;DHT22;50345;51.136;16.886;2023-02-15T07:03:50;1.10;99.90
6956;DHT22;50345;51.136;16.886;2023-02-15T07:06:15;1.20;99.90
6956;DHT22;50345;51.136;16.886;2023-02-15T07:08:41;1.20;99.90
6956;DHT22;50345;51.136;16.886;2023-02-15T07:11:07;1.30;99.90
6956;DHT22;50345;51.136;16.886;2023-02-15T07:13:51;1.40;99.90
6956;DHT22;50345;51.136;16.886;2023-02-15T07:16:18;1.50;99.90
6956;DHT22;50345;51.136;16.886;2023-02-15T07:18:44;1.60;99.90
6956;DHT22;50345;51.136;16.886;2023-02-15T07:21:09;1.60;99.90
6956;DHT22;50345;51.136;16.886;2023-02-15T07:23:39;1.70;99.90
6956;DHT22;50345;51.136;16.886;2023-02-15T07:26:06;1.80;99.90
6956;DHT22;50345;51.136;16.886;2023-02-15T07:28:34;1.80;99.90
6956;DHT22;50345;51.136;16.886;2023-02-15T07:31:03;2.00;99.90
6956;DHT22;50345;51.136;16.886;2023-02-15T07:33:31;2.10;99.90
6956;DHT22;50345;51.136;16.886;2023-02-15T07:35:59;2.10;99.90
6956;DHT22;50345;51.136;16.886;2023-02-15T07:38:27;2.20;99.90
6956;DHT22;50345;51.136;16.886;2023-02-15T07:40:58;2.40;99.90
6956;DHT22;50345;51.136;16.886;2023-02-15T07:43:24;2.50;99.90
6956;DHT22;50345;51.136;16.886;2023-02-15T07:45:50;2.60;99.90
6956;DHT22;50345;51.136;16.886;2023-02-15T07:48:15;2.80;99.90
6956;DHT22;50345;51.136;16.886;2023-02-15T07:50:41;2.90;99.90
6956;DHT22;50345;51.136;16.886;2023-02-15T07:53:06;3.00;99.90
6956;DHT22;50345;51.136;16.886;2023-02-15T07:55:32;3.10;99.90
6956;DHT22;50345;51.136;16.886;2023-02-15T07:57:57;3.20;99.90
6956;DHT22;50345;51.136;16.886;2023-02-15T08:00:23;3.30;99.90
6956;DHT22;50345;51.136;16.886;2023-02-15T08:02:59;3.40;99.90
6956;DHT22;50345;51.136;16.886;2023-02-15T08:05:41;3.40;99.90
6956;DHT22;50345;51.136;16.886;2023-02-15T08:08:08;3.50;99.90
6956;DHT22;50345;51.136;16.886;2023-02-15T08:10:35;3.60;99.90
6956;DHT22;50345;51.136;16.886;2023-02-15T08:13:19;3.70;99.90
6956;DHT22;50345;51.136;16.886;2023-02-15T08:15:49;3.80;99.90
6956;DHT22;50345;51.136;16.886;2023-02-15T08:18:15;3.90;99.90
6956;DHT22;50345;51.136;16.886;2023-02-15T08:20:41;4.00;99.90
6956;DHT22;50345;51.136;16.886;2023-02-15T08:23:06;4.10;99.90
6956;DHT22;50345;51.136;16.886;2023-02-15T08:25:32;4.20;99.90
6956;DHT22;50345;51.136;16.886;2023-02-15T08:27:57;4.20;99.90
6956;DHT22;50345;51.136;16.886;2023-02-15T08:30:23;4.30;99.90
6956;DHT22;50345;51.136;16.886;2023-02-15T08:32:48;4.40;99.90
6956;DHT22;50345;51.136;16.886;2023-02-15T08:35:14;4.40;99.90
6956;DHT22;50345;51.136;16.886;2023-02-15T08:37:40;4.50;99.90
6956;DHT22;50345;51.136;16.886;2023-02-15T08:40:06;4.60;99.90
6956;DHT22;50345;51.136;16.886;2023-02-15T08:42:35;4.70;99.90
6956;DHT22;50345;51.136;16.886;2023-02-15T08:45:00;4.80;99.90
6956;DHT22;50345;51.136;16.886;2023-02-15T08:47:26;4.90;99.90
6956;DHT22;50345;51.136;16.886;2023-02-15T08:49:51;5.00;99.90
6956;DHT22;50345;51.136;16.886;2023-02-15T08:52:17;5.10;99.90
6956;DHT22;50345;51.136;16.886;2023-02-15T08:54:42;5.20;99.90
6956;DHT22;50345;51.136;16.886;2023-02-15T08:57:08;5.30;99.90
6956;DHT22;50345;51.136;16.886;2023-02-15T08:59:35;5.40;99.90
6956;DHT22;50345;51.136;16.886;2023-02-15T09:02:01;5.60;99.90
6956;DHT22;50345;51.136;16.886;2023-02-15T09:04:28;5.70;99.90
6956;DHT22;50345;51.136;16.886;2023-02-15T09:06:53;6.00;99.90
6956;DHT22;50345;51.136;16.886;2023-02-15T09:09:21;6.10;99.90
6956;DHT22;50345;51.136;16.886;2023-02-15T09:11:48;6.40;99.90
6956;DHT22;50345;51.136;16.886;2023-02-15T09:14:19;6.80;99.90
6956;DHT22;50345;51.136;16.886;2023-02-15T09:16:51;8.30;99.90
6956;DHT22;50345;51.136;16.886;2023-02-15T09:19:19;9.10;99.90
6956;DHT22;50345;51.136;16.886;2023-02-15T09:21:45;10.30;99.00
6956;DHT22;50345;51.136;16.886;2023-02-15T09:24:12;11.10;92.50
6956;DHT22;50345;51.136;16.886;2023-02-15T09:26:41;12.10;83.40
6956;DHT22;50345;51.136;16.886;2023-02-15T09:29:08;13.30;72.60
6956;DHT22;50345;51.136;16.886;2023-02-15T09:31:41;13.30;73.40
6956;DHT22;50345;51.136;16.886;2023-02-15T09:34:10;14.60;64.40
6956;DHT22;50345;51.136;16.886;2023-02-15T09:36:37;16.60;53.30
6956;DHT22;50345;51.136;16.886;2023-02-15T09:39:12;17.40;50.70
6956;DHT22;50345;51.136;16.886;2023-02-15T09:53:38;20.20;43.20
6956;DHT22;50345;51.136;16.886;2023-02-15T09:58:54;20.70;41.80
6956;DHT22;50345;51.136;16.886;2023-02-15T10:21:23;24.50;34.80
6956;DHT22;50345;51.136;16.886;2023-02-15T10:24:08;24.70;33.60
6956;DHT22;50345;51.136;16.886;2023-02-15T10:26:45;24.70;34.00
6956;DHT22;50345;51.136;16.886;2023-02-15T10:29:34;24.70;34.00
6956;DHT22;50345;51.136;16.886;2023-02-15T10:35:00;24.80;34.20
6956;DHT22;50345;51.136;16.886;2023-02-15T10:40:57;24.50;33.80
6956;DHT22;50345;51.136;16.886;2023-02-15T10:49:23;25.60;31.80
6956;DHT22;50345;51.136;16.886;2023-02-15T10:57:09;25.90;32.00
6956;DHT22;50345;51.136;16.886;2023-02-15T11:05:23;25.60;31.70
6956;DHT22;50345;51.136;16.886;2023-02-15T11:07:52;25.40;32.40
6956;DHT22;50345;51.136;16.886;2023-02-15T11:12:48;25.40;32.70
6956;DHT22;50345;51.136;16.886;2023-02-15T11:18:14;25.80;31.30
6956;DHT22;50345;51.136;16.886;2023-02-15T11:20:54;25.60;31.90
6956;DHT22;50345;51.136;16.886;2023-02-15T11:23:20;25.10;31.80
6956;DHT22;50345;51.136;16.886;2023-02-15T11:25:59;24.30;32.20
6956;DHT22;50345;51.136;16.886;2023-02-15T11:28:37;23.70;33.70
6956;DHT22;50345;51.136;16.886;2023-02-15T11:31:25;23.20;34.50
6956;DHT22;50345;51.136;16.886;2023-02-15T11:33:59;23.00;34.70
6956;DHT22;50345;51.136;16.886;2023-02-15T11:36:28;23.00;34.70
6956;DHT22;50345;51.136;16.886;2023-02-15T11:39:05;23.20;35.10
6956;DHT22;50345;51.136;16.886;2023-02-15T11:41:38;23.40;34.60
6956;DHT22;50345;51.136;16.886;2023-02-15T11:44:15;23.60;34.50
6956;DHT22;50345;51.136;16.886;2023-02-15T11:46:43;23.90;34.20
6956;DHT22;50345;51.136;16.886;2023-02-15T11:49:32;24.20;33.60
6956;DHT22;50345;51.136;16.886;2023-02-15T11:52:02;24.20;33.10
6956;DHT22;50345;51.136;16.886;2023-02-15T11:54:31;24.20;33.10
6956;DHT22;50345;51.136;16.886;2023-02-15T11:58:03;24.40;33.20
6956;DHT22;50345;51.136;16.886;2023-02-15T12:00:06;24.60;32.90
6956;DHT22;50345;51.136;16.886;2023-02-15T12:02:37;24.60;34.10
6956;DHT22;50345;51.136;16.886;2023-02-15T12:05:09;24.60;33.10
6956;DHT22;50345;51.136;16.886;2023-02-15T12:07:42;24.70;33.20
6956;DHT22;50345;51.136;16.886;2023-02-15T12:13:16;24.70;33.00
6956;DHT22;50345;51.136;16.886;2023-02-15T12:15:44;24.60;33.50
6956;DHT22;50345;51.136;16.886;2023-02-15T12:20:46;24.60;33.50
6956;DHT22;50345;51.136;16.886;2023-02-15T12:23:14;24.70;33.20
6956;DHT22;50345;51.136;16.886;2023-02-15T12:25:50;24.50;33.50
6956;DHT22;50345;51.136;16.886;2023-02-15T12:30:48;23.30;34.40
6956;DHT22;50345;51.136;16.886;2023-02-15T12:36:04;23.20;34.50
6956;DHT22;50345;51.136;16.886;2023-02-15T12:38:34;23.40;34.20
6956;DHT22;50345;51.136;16.886;2023-02-15T12:41:26;23.60;34.10
6956;DHT22;50345;51.136;16.886;2023-02-15T12:47:25;23.70;33.60
6956;DHT22;50345;51.136;16.886;2023-02-15T12:50:21;23.80;33.60
6956;DHT22;50345;51.136;16.886;2023-02-15T12:52:49;23.80;33.70
6956;DHT22;50345;51.136;16.886;2023-02-15T12:55:24;23.70;33.00
6956;DHT22;50345;51.136;16.886;2023-02-15T12:58:17;23.70;32.80
6956;DHT22;50345;51.136;16.886;2023-02-15T13:00:44;23.60;33.40
6956;DHT22;50345;51.136;16.886;2023-02-15T13:03:20;23.60;33.80
6956;DHT22;50345;51.136;16.886;2023-02-15T13:05:51;23.50;33.90
6956;DHT22;50345;51.136;16.886;2023-02-15T13:08:27;23.40;33.60
6956;DHT22;50345;51.136;16.886;2023-02-15T13:13:26;23.10;33.90
6956;DHT22;50345;51.136;16.886;2023-02-15T13:15:55;23.00;33.80
6956;DHT22;50345;51.136;16.886;2023-02-15T13:18:34;22.80;34.60
6956;DHT22;50345;51.136;16.886;2023-02-15T13:21:26;22.80;34.10
6956;DHT22;50345;51.136;16.886;2023-02-15T13:24:00;22.80;33.80
6956;DHT22;50345;51.136;16.886;2023-02-15T13:26:30;22.60;34.10
6956;DHT22;50345;51.136;16.886;2023-02-15T13:28:58;22.50;34.50
6956;DHT22;50345;51.136;16.886;2023-02-15T13:31:28;22.40;34.60
6956;DHT22;50345;51.136;16.886;2023-02-15T13:34:09;22.20;34.90
6956;DHT22;50345;51.136;16.886;2023-02-15T13:36:57;22.00;35.10
6956;DHT22;50345;51.136;16.886;2023-02-15T13:39:32;22.00;35.50
6956;DHT22;50345;51.136;16.886;2023-02-15T13:47:59;22.00;34.90
6956;DHT22;50345;51.136;16.886;2023-02-15T13:50:56;21.80;35.40
6956;DHT22;50345;51.136;16.886;2023-02-15T13:53:35;21.70;35.80
6956;DHT22;50345;51.136;16.886;2023-02-15T13:56:31;21.50;35.90
6956;DHT22;50345;51.136;16.886;2023-02-15T14:01:56;21.10;35.90
6956;DHT22;50345;51.136;16.886;2023-02-15T14:07:16;20.80;37.00
6956;DHT22;50345;51.136;16.886;2023-02-15T14:18:14;20.40;38.10
6956;DHT22;50345;51.136;16.886;2023-02-15T14:31:56;19.80;39.60
6956;DHT22;50345;51.136;16.886;2023-02-15T14:36:55;19.40;41.30
6956;DHT22;50345;51.136;16.886;2023-02-15T14:42:35;19.00;41.60
6956;DHT22;50345;51.136;16.886;2023-02-15T14:47:44;18.60;42.20
6956;DHT22;50345;51.136;16.886;2023-02-15T14:50:42;18.30;42.40
6956;DHT22;50345;51.136;16.886;2023-02-15T14:53:32;17.80;43.10
6956;DHT22;50345;51.136;16.886;2023-02-15T14:58:55;16.50;44.90
6956;DHT22;50345;51.136;16.886;2023-02-15T15:01:41;15.90;46.20
6956;DHT22;50345;51.136;16.886;2023-02-15T15:04:10;15.30;47.50
6956;DHT22;50345;51.136;16.886;2023-02-15T15:06:38;14.90;48.70
6956;DHT22;50345;51.136;16.886;2023-02-15T15:09:25;14.70;49.40
6956;DHT22;50345;51.136;16.886;2023-02-15T15:11:54;14.70;49.60
6956;DHT22;50345;51.136;16.886;2023-02-15T15:16:58;15.00;49.50
6956;DHT22;50345;51.136;16.886;2023-02-15T15:22:21;14.70;49.50
6956;DHT22;50345;51.136;16.886;2023-02-15T15:24:47;14.30;50.10
6956;DHT22;50345;51.136;16.886;2023-02-15T15:32:47;13.10;52.90
6956;DHT22;50345;51.136;16.886;2023-02-15T15:43:40;11.80;56.30
6956;DHT22;50345;51.136;16.886;2023-02-15T15:46:42;11.60;56.90
6956;DHT22;50345;51.136;16.886;2023-02-15T15:49:18;11.30;57.50
6956;DHT22;50345;51.136;16.886;2023-02-15T15:51:45;11.20;58.10
6956;DHT22;50345;51.136;16.886;2023-02-15T15:54:24;10.90;58.60
6956;DHT22;50345;51.136;16.886;2023-02-15T15:56:58;10.80;59.30
6956;DHT22;50345;51.136;16.886;2023-02-15T15:59:30;10.60;61.20
6956;DHT22;50345;51.136;16.886;2023-02-15T16:01:56;10.40;62.00
6956;DHT22;50345;51.136;16.886;2023-02-15T16:04:33;10.30;64.20
6956;DHT22;50345;51.136;16.886;2023-02-15T16:09:56;10.00;71.50
6956;DHT22;50345;51.136;16.886;2023-02-15T16:12:22;9.80;79.00
6956;DHT22;50345;51.136;16.886;2023-02-15T16:14:48;9.70;86.10
6956;DHT22;50345;51.136;16.886;2023-02-15T16:17:24;9.60;90.80
6956;DHT22;50345;51.136;16.886;2023-02-15T16:19:51;9.50;93.50
6956;DHT22;50345;51.136;16.886;2023-02-15T16:22:24;9.40;96.00
6956;DHT22;50345;51.136;16.886;2023-02-15T16:28:10;9.20;99.70
6956;DHT22;50345;51.136;16.886;2023-02-15T16:30:38;9.00;99.90
6956;DHT22;50345;51.136;16.886;2023-02-15T16:33:12;8.90;99.90
6956;DHT22;50345;51.136;16.886;2023-02-15T16:35:52;8.80;99.90
6956;DHT22;50345;51.136;16.886;2023-02-15T16:38:26;8.70;99.90
6956;DHT22;50345;51.136;16.886;2023-02-15T16:40:55;8.60;99.90
6956;DHT22;50345;51.136;16.886;2023-02-15T16:43:25;8.50;99.90
6956;DHT22;50345;51.136;16.886;2023-02-15T16:45:55;8.40;99.90
6956;DHT22;50345;51.136;16.886;2023-02-15T16:48:25;8.30;99.90
6956;DHT22;50345;51.136;16.886;2023-02-15T16:50:54;8.20;99.90
6956;DHT22;50345;51.136;16.886;2023-02-15T16:53:26;8.10;99.90
6956;DHT22;50345;51.136;16.886;2023-02-15T16:56:02;8.00;99.90
6956;DHT22;50345;51.136;16.886;2023-02-15T17:01:02;7.70;99.90
6956;DHT22;50345;51.136;16.886;2023-02-15T17:03:31;7.70;99.90
6956;DHT22;50345;51.136;16.886;2023-02-15T17:06:01;7.60;99.90
6956;DHT22;50345;51.136;16.886;2023-02-15T17:08:43;7.60;99.90
6956;DHT22;50345;51.136;16.886;2023-02-15T17:11:17;7.50;99.90
6956;DHT22;50345;51.136;16.886;2023-02-15T17:14:10;7.40;99.90
6956;DHT22;50345;51.136;16.886;2023-02-15T17:16:48;7.30;99.90
6956;DHT22;50345;51.136;16.886;2023-02-15T17:19:22;7.20;99.90
6956;DHT22;50345;51.136;16.886;2023-02-15T17:22:01;7.10;99.90
6956;DHT22;50345;51.136;16.886;2023-02-15T17:27:05;7.00;99.90
6956;DHT22;50345;51.136;16.886;2023-02-15T17:29:44;7.00;99.90
6956;DHT22;50345;51.136;16.886;2023-02-15T17:32:20;6.90;99.90
6956;DHT22;50345;51.136;16.886;2023-02-15T17:40:29;6.70;99.90
6956;DHT22;50345;51.136;16.886;2023-02-15T17:42:55;6.70;99.90
6956;DHT22;50345;51.136;16.886;2023-02-15T17:45:22;6.60;99.90
6956;DHT22;50345;51.136;16.886;2023-02-15T17:47:50;6.50;99.90
6956;DHT22;50345;51.136;16.886;2023-02-15T17:50:22;6.40;99.90
6956;DHT22;50345;51.136;16.886;2023-02-15T17:52:48;6.40;99.90
6956;DHT22;50345;51.136;16.886;2023-02-15T17:55:16;6.30;99.90
6956;DHT22;50345;51.136;16.886;2023-02-15T17:58:06;6.30;99.90
6956;DHT22;50345;51.136;16.886;2023-02-15T18:00:34;6.20;99.90
6956;DHT22;50345;51.136;16.886;2023-02-15T18:03:19;6.10;99.90
6956;DHT22;50345;51.136;16.886;2023-02-15T18:06:04;6.10;99.90
6956;DHT22;50345;51.136;16.886;2023-02-15T18:08:49;6.10;99.90
6956;DHT22;50345;51.136;16.886;2023-02-15T18:11:33;6.10;99.90
6956;DHT22;50345;51.136;16.886;2023-02-15T18:14:06;6.10;99.90
6956;DHT22;50345;51.136;16.886;2023-02-15T18:16:37;6.10;99.90
6956;DHT22;50345;51.136;16.886;2023-02-15T18:19:05;6.00;99.90
6956;DHT22;50345;51.136;16.886;2023-02-15T18:21:34;6.00;99.90
6956;DHT22;50345;51.136;16.886;2023-02-15T18:24:00;5.90;99.90
6956;DHT22;50345;51.136;16.886;2023-02-15T18:26:26;5.90;99.90
6956;DHT22;50345;51.136;16.886;2023-02-15T18:28:53;5.80;99.90
6956;DHT22;50345;51.136;16.886;2023-02-15T18:31:19;5.70;99.90
6956;DHT22;50345;51.136;16.886;2023-02-15T18:33:55;5.60;99.90
6956;DHT22;50345;51.136;16.886;2023-02-15T18:36:26;5.50;99.90
6956;DHT22;50345;51.136;16.886;2023-02-15T18:38:53;5.40;99.90
6956;DHT22;50345;51.136;16.886;2023-02-15T18:41:19;5.30;99.90
6956;DHT22;50345;51.136;16.886;2023-02-15T18:43:47;5.20;99.90
6956;DHT22;50345;51.136;16.886;2023-02-15T18:46:14;5.20;99.90
6956;DHT22;50345;51.136;16.886;2023-02-15T18:48:40;5.20;99.90
6956;DHT22;50345;51.136;16.886;2023-02-15T18:53:40;5.10;99.90
6956;DHT22;50345;51.136;16.886;2023-02-15T18:56:12;5.10;99.90
6956;DHT22;50345;51.136;16.886;2023-02-15T18:58:39;5.00;99.90
6956;DHT22;50345;51.136;16.886;2023-02-15T19:01:11;4.90;99.90
6956;DHT22;50345;51.136;16.886;2023-02-15T19:03:44;4.90;99.90
6956;DHT22;50345;51.136;16.886;2023-02-15T19:06:11;4.80;99.90
6956;DHT22;50345;51.136;16.886;2023-02-15T19:08:37;4.70;99.90
6956;DHT22;50345;51.136;16.886;2023-02-15T19:11:04;4.70;99.90
6956;DHT22;50345;51.136;16.886;2023-02-15T19:13:30;4.60;99.90
6956;DHT22;50345;51.136;16.886;2023-02-15T19:15:55;4.60;99.90
6956;DHT22;50345;51.136;16.886;2023-02-15T19:18:22;4.60;99.90